Time;durP1;ratioP1;P1;durP2;ratioP2;P2;SDS_P1;SDS_P2;PMS_P1;PMS_P2;Temp;Humidity;BMP_temperature;BMP_pressure;BME280_temperature;BME280_humidity;BME280_pressure;Samples;Min_cycle;Max_cycle;Signal;HPM_P1;HPM_P2
2023/01/11 00:00:48;;;;;;;0.32;0.20;;;7.30;99.90;;;;;;5074589;28;20477;-62
2023/01/11 00:03:16;;;;;;;0.60;0.20;;;7.30;99.90;;;;;;5074858;28;20458;-63
2023/01/11 00:05:44;;;;;;;0.50;0.20;;;7.60;99.90;;;;;;5073795;28;20523;-64
2023/01/11 00:08:12;;;;;;;0.50;0.20;;;7.50;99.90;;;;;;5073766;28;20515;-62
2023/01/11 00:10:39;;;;;;;0.60;0.30;;;7.40;99.90;;;;;;5073146;28;20466;-62
2023/01/11 00:13:07;;;;;;;0.50;0.20;;;7.40;99.90;;;;;;5074522;28;20799;-63
2023/01/11 00:15:39;;;;;;;0.60;0.20;;;7.40;99.90;;;;;;5074766;28;20459;-62
2023/01/11 00:18:06;;;;;;;0.40;0.20;;;7.40;99.90;;;;;;5074417;28;20584;-62
2023/01/11 00:20:33;;;;;;;0.70;0.22;;;7.40;99.90;;;;;;5073973;28;20920;-62
2023/01/11 00:23:01;;;;;;;0.88;0.20;;;7.50;99.90;;;;;;5073767;28;20542;-62
2023/01/11 00:25:29;;;;;;;0.80;0.20;;;7.50;99.90;;;;;;5074353;28;20412;-62
2023/01/11 00:27:56;;;;;;;0.50;0.20;;;7.50;99.90;;;;;;5073734;28;20795;-63
2023/01/11 00:30:23;;;;;;;0.50;0.20;;;7.60;99.90;;;;;;5074411;28;20423;-63
2023/01/11 00:32:56;;;;;;;0.60;0.20;;;7.60;99.90;;;;;;5074173;28;20510;-62
2023/01/11 00:35:23;;;;;;;0.90;0.20;;;7.70;99.90;;;;;;5073277;28;20498;-62
2023/01/11 00:37:50;;;;;;;0.50;0.20;;;7.80;99.90;;;;;;5074420;28;20514;-63
2023/01/11 00:40:18;;;;;;;0.60;0.20;;;7.90;99.90;;;;;;5073700;28;20463;-65
2023/01/11 00:48:16;;;;;;;0.60;0.20;;;7.70;99.90;;;;;;5075204;28;20402;-62
2023/01/11 00:50:43;;;;;;;0.70;0.20;;;7.70;99.90;;;;;;5077257;28;20505;-62
2023/01/11 00:53:10;;;;;;;0.50;0.20;;;7.70;99.90;;;;;;5078277;28;20427;-62
2023/01/11 00:55:37;;;;;;;0.95;0.20;;;7.80;99.90;;;;;;5076632;28;20496;-62
2023/01/11 00:58:05;;;;;;;1.30;0.20;;;7.80;99.90;;;;;;5077147;28;20431;-63
2023/01/11 01:00:32;;;;;;;0.40;0.20;;;8.00;99.90;;;;;;5076980;28;20510;-62
2023/01/11 01:02:59;;;;;;;0.40;0.20;;;7.90;99.90;;;;;;5076190;28;20524;-63
2023/01/11 01:05:28;;;;;;;0.95;0.20;;;7.90;99.90;;;;;;5077550;28;20781;-63
2023/01/11 01:07:55;;;;;;;0.40;0.20;;;7.80;99.90;;;;;;5076927;28;20833;-62
2023/01/11 01:10:22;;;;;;;0.40;0.20;;;7.70;99.90;;;;;;5076946;28;20535;-63
2023/01/11 01:15:34;;;;;;;0.50;0.20;;;7.80;99.90;;;;;;5076849;28;20402;-62
2023/01/11 01:18:02;;;;;;;0.50;0.17;;;7.80;99.90;;;;;;5076495;28;20431;-62
2023/01/11 01:20:31;;;;;;;0.90;0.20;;;7.80;99.90;;;;;;5076224;28;20455;-62
2023/01/11 01:23:01;;;;;;;0.70;0.30;;;7.70;99.90;;;;;;5076550;28;20448;-63
2023/01/11 01:25:28;;;;;;;0.40;0.10;;;7.80;99.90;;;;;;5074838;28;20474;-62
2023/01/11 01:27:55;;;;;;;0.50;0.20;;;7.70;99.90;;;;;;5075202;28;20455;-62
2023/01/11 01:30:22;;;;;;;0.50;0.20;;;7.80;99.90;;;;;;5076403;28;20494;-62
2023/01/11 01:32:49;;;;;;;0.40;0.20;;;7.70;99.90;;;;;;5075929;28;20506;-62
2023/01/11 01:35:17;;;;;;;0.50;0.20;;;7.80;99.90;;;;;;5076072;28;20728;-62
2023/01/11 01:37:45;;;;;;;0.60;0.20;;;7.70;99.90;;;;;;5076930;28;20514;-63
2023/01/11 01:40:13;;;;;;;1.00;0.20;;;7.70;99.90;;;;;;5076941;28;20477;-62
2023/01/11 01:42:40;;;;;;;0.47;0.20;;;7.70;99.90;;;;;;5076296;28;20424;-63
2023/01/11 01:45:16;;;;;;;0.40;0.20;;;7.60;99.90;;;;;;5077203;28;20530;-62
2023/01/11 01:47:47;;;;;;;0.60;0.20;;;7.70;99.90;;;;;;5076478;28;20419;-63
2023/01/11 01:50:20;;;;;;;1.20;0.20;;;7.60;99.90;;;;;;5076686;28;20427;-62
2023/01/11 01:52:52;;;;;;;0.57;0.20;;;7.60;99.90;;;;;;5076415;28;20530;-61
2023/01/11 01:55:26;;;;;;;0.50;0.20;;;7.60;99.90;;;;;;5076570;28;20760;-63
2023/01/11 01:57:55;;;;;;;0.50;0.20;;;7.60;99.90;;;;;;5073824;28;20431;-62
2023/01/11 02:00:22;;;;;;;0.40;0.20;;;7.70;99.90;;;;;;5076051;28;20885;-62
2023/01/11 02:02:50;;;;;;;0.50;0.10;;;7.70;99.90;;;;;;5075435;28;20506;-64
2023/01/11 02:05:18;;;;;;;0.40;0.20;;;7.70;99.90;;;;;;5076875;28;20766;-63
2023/01/11 02:07:50;;;;;;;0.50;0.20;;;7.70;99.90;;;;;;5075941;28;20517;-62
2023/01/11 02:10:19;;;;;;;0.40;0.20;;;7.70;99.90;;;;;;5076332;28;20438;-62
2023/01/11 02:12:50;;;;;;;0.50;0.20;;;7.80;99.90;;;;;;5075269;28;20424;-62
2023/01/11 02:15:20;;;;;;;0.50;0.20;;;7.80;99.90;;;;;;5076312;28;20810;-62
2023/01/11 02:17:47;;;;;;;0.60;0.10;;;7.90;99.90;;;;;;5072305;28;20432;-62
2023/01/11 02:20:45;;;;;;;0.40;0.20;;;7.80;99.90;;;;;;5076436;28;20514;-62
2023/01/11 02:24:08;;;;;;;0.70;0.20;;;7.90;99.90;;;;;;5075878;28;20531;-62
2023/01/11 02:27:16;;;;;;;0.50;0.20;;;8.00;99.90;;;;;;4984672;28;20448;-62
2023/01/11 02:29:56;;;;;;;0.40;0.20;;;7.90;99.90;;;;;;4972550;28;20444;-62
2023/01/11 02:32:31;;;;;;;0.70;0.10;;;7.90;99.90;;;;;;5040645;28;20464;-63
2023/01/11 02:35:08;;;;;;;0.50;0.20;;;8.00;99.90;;;;;;5055941;28;20904;-62
2023/01/11 02:37:44;;;;;;;0.40;0.20;;;8.00;99.90;;;;;;5071925;28;20530;-62
2023/01/11 02:40:22;;;;;;;0.40;0.20;;;8.20;99.90;;;;;;5076741;28;20519;-62
2023/01/11 02:45:47;;;;;;;0.40;0.10;;;8.10;99.90;;;;;;5065326;28;20430;-63
2023/01/11 02:48:20;;;;;;;0.50;0.20;;;8.10;99.90;;;;;;5055412;28;20449;-63
2023/01/11 02:50:57;;;;;;;0.57;0.20;;;8.10;99.90;;;;;;5056016;28;20503;-63
2023/01/11 02:53:27;;;;;;;0.40;0.10;;;8.10;99.90;;;;;;5065846;28;20443;-64
2023/01/11 02:55:58;;;;;;;1.90;0.20;;;8.20;99.90;;;;;;5075435;28;20451;-63
2023/01/11 02:58:28;;;;;;;0.40;0.10;;;8.20;99.90;;;;;;5075714;28;20440;-62
2023/01/11 03:00:57;;;;;;;0.40;0.10;;;8.20;99.90;;;;;;5075917;28;20455;-62
2023/01/11 03:03:26;;;;;;;0.70;0.10;;;8.30;99.90;;;;;;5074667;28;20835;-62
2023/01/11 03:05:57;;;;;;;0.50;0.20;;;8.30;99.90;;;;;;5076135;28;20426;-63
2023/01/11 03:08:52;;;;;;;0.40;0.20;;;8.40;99.90;;;;;;5075273;28;20455;-62
2023/01/11 03:14:20;;;;;;;0.60;0.10;;;8.40;99.90;;;;;;5073602;28;20854;-62
2023/01/11 03:16:55;;;;;;;0.30;0.10;;;8.50;99.90;;;;;;5073660;28;20732;-62
2023/01/11 03:19:31;;;;;;;0.40;0.10;;;8.50;99.90;;;;;;5074468;28;20534;-63
2023/01/11 03:22:05;;;;;;;0.40;0.10;;;8.50;99.90;;;;;;5070805;28;20463;-63
2023/01/11 03:24:40;;;;;;;0.30;0.10;;;8.40;99.90;;;;;;5075351;28;20462;-63
2023/01/11 03:27:20;;;;;;;0.40;0.10;;;8.30;99.90;;;;;;5075212;28;20910;-63
2023/01/11 03:29:52;;;;;;;0.30;0.10;;;8.30;99.90;;;;;;5073975;28;20519;-63
2023/01/11 03:32:28;;;;;;;0.30;0.10;;;8.40;99.90;;;;;;5075341;28;20523;-63
2023/01/11 03:35:10;;;;;;;0.40;0.10;;;8.30;99.90;;;;;;5074826;28;20918;-64
2023/01/11 03:37:42;;;;;;;0.40;0.20;;;8.30;99.90;;;;;;5073524;28;20511;-64
2023/01/11 03:40:13;;;;;;;0.40;0.10;;;8.40;99.90;;;;;;5074316;28;20438;-62
2023/01/11 03:45:30;;;;;;;0.30;0.10;;;8.40;99.90;;;;;;5072511;28;20889;-63
2023/01/11 03:48:01;;;;;;;0.30;0.10;;;8.50;99.90;;;;;;5073044;28;20419;-63
2023/01/11 03:50:30;;;;;;;0.40;0.10;;;8.50;99.90;;;;;;5073870;28;20527;-63
2023/01/11 03:53:00;;;;;;;0.30;0.10;;;8.50;99.90;;;;;;5073098;28;20575;-63
2023/01/11 03:55:33;;;;;;;0.30;0.10;;;8.40;99.90;;;;;;5073960;28;20502;-63
2023/01/11 03:58:01;;;;;;;0.30;0.10;;;8.50;99.90;;;;;;5074179;28;20419;-63
2023/01/11 04:00:29;;;;;;;0.30;0.10;;;8.50;99.90;;;;;;5074282;28;20431;-63
2023/01/11 04:03:00;;;;;;;0.50;0.10;;;8.50;99.90;;;;;;5073028;28;20731;-63
2023/01/11 04:05:27;;;;;;;0.40;0.10;;;8.50;99.90;;;;;;5073776;28;20723;-62
2023/01/11 04:07:55;;;;;;;0.30;0.10;;;8.40;99.90;;;;;;5073142;28;20420;-63
2023/01/11 04:10:22;;;;;;;0.30;0.10;;;8.50;99.90;;;;;;5073153;28;20515;-63
2023/01/11 04:12:50;;;;;;;1.00;0.30;;;8.50;99.90;;;;;;5073628;28;20557;-63
2023/01/11 04:15:17;;;;;;;0.30;0.10;;;8.60;99.90;;;;;;5074158;28;20858;-63
2023/01/11 04:17:44;;;;;;;0.40;0.10;;;8.70;99.90;;;;;;5073901;28;20628;-63
2023/01/11 04:20:13;;;;;;;0.40;0.10;;;8.70;99.90;;;;;;5074588;28;20526;-62
2023/01/11 04:22:40;;;;;;;0.60;0.30;;;8.70;99.90;;;;;;5072399;28;20883;-64
2023/01/11 04:25:08;;;;;;;0.30;0.10;;;8.70;99.90;;;;;;5074529;28;20439;-63
2023/01/11 04:27:36;;;;;;;0.50;0.20;;;8.70;99.90;;;;;;5074009;28;20455;-63
2023/01/11 04:30:04;;;;;;;0.30;0.10;;;8.70;99.90;;;;;;5074397;28;20427;-62
2023/01/11 04:32:32;;;;;;;0.30;0.10;;;8.80;99.90;;;;;;5073584;28;20447;-63
2023/01/11 04:34:59;;;;;;;0.30;0.10;;;8.80;99.90;;;;;;5074595;28;20438;-63
2023/01/11 04:37:27;;;;;;;0.35;0.10;;;8.70;99.90;;;;;;5073828;28;20458;-63
2023/01/11 04:39:55;;;;;;;0.30;0.10;;;8.70;99.90;;;;;;5074525;28;20436;-64
2023/01/11 04:42:23;;;;;;;0.40;0.10;;;8.70;99.90;;;;;;5072638;28;20507;-65
2023/01/11 04:44:52;;;;;;;0.40;0.20;;;8.80;99.90;;;;;;5073847;28;20518;-65
2023/01/11 04:47:20;;;;;;;0.85;0.22;;;8.70;99.90;;;;;;5074425;28;20442;-66
2023/01/11 04:49:48;;;;;;;0.50;0.20;;;8.70;99.90;;;;;;5074391;28;20434;-65
2023/01/11 04:52:17;;;;;;;0.55;0.25;;;8.60;99.90;;;;;;5074011;28;20511;-64
2023/01/11 04:54:47;;;;;;;0.30;0.10;;;8.60;99.90;;;;;;5074515;28;20450;-64
2023/01/11 04:57:16;;;;;;;0.40;0.10;;;8.60;99.90;;;;;;5073914;28;20903;-65
2023/01/11 04:59:45;;;;;;;0.40;0.10;;;8.60;99.90;;;;;;5074366;28;20538;-65
2023/01/11 05:02:12;;;;;;;0.30;0.10;;;8.50;99.90;;;;;;5073626;28;20660;-66
2023/01/11 05:04:40;;;;;;;0.30;0.10;;;8.60;99.90;;;;;;5073301;28;20580;-66
2023/01/11 05:07:07;;;;;;;0.30;0.10;;;8.60;99.90;;;;;;5071746;28;20485;-65
2023/01/11 05:09:34;;;;;;;0.30;0.10;;;8.60;99.90;;;;;;5073747;28;20433;-64
2023/01/11 05:12:03;;;;;;;0.30;0.10;;;8.70;99.90;;;;;;5073148;28;20730;-64
2023/01/11 05:14:30;;;;;;;0.40;0.13;;;8.70;99.90;;;;;;5073744;28;20433;-64
2023/01/11 05:16:58;;;;;;;0.50;0.20;;;8.70;99.90;;;;;;5074213;28;20473;-64
2023/01/11 05:19:25;;;;;;;0.40;0.10;;;8.70;99.90;;;;;;5074128;28;20481;-64
2023/01/11 05:21:52;;;;;;;0.50;0.10;;;8.70;99.90;;;;;;5073808;28;20506;-64
2023/01/11 05:24:20;;;;;;;0.30;0.10;;;8.70;99.90;;;;;;5074113;28;20519;-64
2023/01/11 05:26:49;;;;;;;0.30;0.10;;;8.60;99.90;;;;;;5073640;28;20515;-64
2023/01/11 05:29:19;;;;;;;0.30;0.10;;;8.70;99.90;;;;;;5072955;28;20524;-64
2023/01/11 05:31:46;;;;;;;0.30;0.10;;;8.70;99.90;;;;;;5073792;28;20419;-64
2023/01/11 05:34:14;;;;;;;0.70;0.10;;;8.60;99.90;;;;;;5074476;28;20523;-64
2023/01/11 05:36:43;;;;;;;0.40;0.10;;;8.60;99.90;;;;;;5076592;28;20505;-64
2023/01/11 05:39:12;;;;;;;0.30;0.10;;;8.60;99.90;;;;;;5076629;28;20805;-64
2023/01/11 05:41:39;;;;;;;0.30;0.10;;;8.60;99.90;;;;;;5077486;28;20419;-64
2023/01/11 05:46:56;;;;;;;0.43;0.17;;;8.50;99.90;;;;;;5076529;28;20785;-63
2023/01/11 05:49:24;;;;;;;0.30;0.10;;;8.60;99.90;;;;;;5077081;28;20518;-64
2023/01/11 05:51:51;;;;;;;0.40;0.20;;;8.50;99.90;;;;;;5075968;28;20510;-65
2023/01/11 05:54:18;;;;;;;0.40;0.10;;;8.60;99.90;;;;;;5075027;28;20530;-64
2023/01/11 05:56:45;;;;;;;0.30;0.10;;;8.50;99.90;;;;;;5071145;28;20431;-65
2023/01/11 05:59:13;;;;;;;0.40;0.10;;;8.50;99.90;;;;;;5076590;28;20467;-63
2023/01/11 06:01:42;;;;;;;0.30;0.10;;;8.50;99.90;;;;;;5075453;28;20419;-62
2023/01/11 06:04:11;;;;;;;0.40;0.10;;;8.50;99.90;;;;;;5073502;28;20543;-60
2023/01/11 06:06:38;;;;;;;0.60;0.10;;;8.60;99.90;;;;;;5065829;28;20437;-61
2023/01/11 06:09:05;;;;;;;1.08;0.38;;;8.70;99.90;;;;;;5054385;28;20464;-60
2023/01/11 06:11:32;;;;;;;0.30;0.10;;;8.70;99.90;;;;;;5053433;28;20418;-60
2023/01/11 06:13:59;;;;;;;0.40;0.20;;;8.80;99.90;;;;;;5066810;28;20521;-61
2023/01/11 06:16:27;;;;;;;0.70;0.32;;;8.70;99.90;;;;;;5071947;28;20444;-61
2023/01/11 06:18:54;;;;;;;0.40;0.20;;;8.70;99.90;;;;;;5055202;28;20436;-61
2023/01/11 06:21:23;;;;;;;1.10;0.50;;;8.60;99.90;;;;;;5074182;28;20442;-61
2023/01/11 06:23:51;;;;;;;0.70;0.30;;;8.60;99.90;;;;;;5072796;28;20721;-61
2023/01/11 06:26:20;;;;;;;0.40;0.20;;;8.50;99.90;;;;;;5073131;28;20427;-60
2023/01/11 06:28:48;;;;;;;0.30;0.10;;;8.60;99.90;;;;;;5074027;28;20431;-60
2023/01/11 06:31:16;;;;;;;0.50;0.10;;;8.70;99.90;;;;;;5073349;28;20502;-60
2023/01/11 06:33:43;;;;;;;0.50;0.30;;;8.70;99.90;;;;;;5072988;28;20906;-64
2023/01/11 06:36:11;;;;;;;0.43;0.20;;;8.70;99.90;;;;;;5072773;28;20416;-60
2023/01/11 06:38:41;;;;;;;0.80;0.10;;;8.80;99.90;;;;;;5071334;28;20530;-60
2023/01/11 06:41:09;;;;;;;0.30;0.10;;;8.70;99.90;;;;;;5070427;28;20899;-59
2023/01/11 06:43:37;;;;;;;0.40;0.20;;;8.80;99.90;;;;;;5070379;28;20534;-59
2023/01/11 06:46:05;;;;;;;0.60;0.10;;;8.80;99.90;;;;;;5071568;28;20443;-61
2023/01/11 06:48:32;;;;;;;0.35;0.10;;;8.70;99.90;;;;;;5064181;28;20469;-61
2023/01/11 06:51:00;;;;;;;0.40;0.20;;;8.70;99.90;;;;;;5052013;28;20541;-61
2023/01/11 06:53:28;;;;;;;0.40;0.20;;;8.90;99.90;;;;;;5051270;28;20849;-62
2023/01/11 06:55:58;;;;;;;0.40;0.10;;;8.90;99.90;;;;;;5052460;28;20500;-62
2023/01/11 06:58:26;;;;;;;0.40;0.20;;;8.90;99.90;;;;;;5051441;28;20887;-62
2023/01/11 07:00:55;;;;;;;0.30;0.10;;;8.90;99.90;;;;;;5052903;28;20436;-62
2023/01/11 07:03:23;;;;;;;0.55;0.30;;;8.90;99.90;;;;;;5053782;28;20427;-62
2023/01/11 07:05:52;;;;;;;0.30;0.20;;;9.00;99.90;;;;;;5053365;28;20417;-63
2023/01/11 07:08:19;;;;;;;0.80;0.20;;;8.90;99.90;;;;;;5063489;28;20910;-62
2023/01/11 07:10:47;;;;;;;0.50;0.20;;;9.10;99.90;;;;;;5070952;28;20476;-61
2023/01/11 07:13:16;;;;;;;0.40;0.20;;;9.10;99.90;;;;;;5055211;28;20653;-62
2023/01/11 07:15:43;;;;;;;0.30;0.20;;;9.10;99.90;;;;;;5062702;28;20434;-61
2023/01/11 07:18:13;;;;;;;0.77;0.20;;;9.10;99.90;;;;;;5066670;28;21018;-60
2023/01/11 07:20:42;;;;;;;1.20;0.20;;;9.10;99.90;;;;;;5067020;28;20519;-60
2023/01/11 07:23:10;;;;;;;3.40;1.10;;;9.10;99.90;;;;;;5073065;28;20871;-60
2023/01/11 07:25:37;;;;;;;0.30;0.13;;;9.10;99.90;;;;;;5070126;28;20503;-59
2023/01/11 07:28:07;;;;;;;0.50;0.20;;;9.20;99.90;;;;;;5052547;28;20542;-60
2023/01/11 07:30:37;;;;;;;0.30;0.20;;;9.20;99.90;;;;;;5058668;28;20437;-61
2023/01/11 07:33:06;;;;;;;0.40;0.20;;;9.20;99.90;;;;;;5057862;28;20440;-60
2023/01/11 07:35:33;;;;;;;0.40;0.20;;;9.20;99.90;;;;;;5052786;28;20465;-60
2023/01/11 07:38:01;;;;;;;0.40;0.10;;;9.20;99.90;;;;;;5067235;28;20463;-60
2023/01/11 07:40:29;;;;;;;0.60;0.20;;;9.30;99.90;;;;;;5069830;28;20446;-60
2023/01/11 07:43:10;;;;;;;0.50;0.20;;;9.30;99.90;;;;;;5069335;28;20428;-60
2023/01/11 07:45:41;;;;;;;0.70;0.30;;;9.30;99.90;;;;;;5071543;28;20427;-59
2023/01/11 07:48:09;;;;;;;0.40;0.20;;;9.30;99.90;;;;;;5066963;28;21075;-60
2023/01/11 07:50:38;;;;;;;0.40;0.10;;;9.50;99.90;;;;;;5070672;28;20721;-60
2023/01/11 07:53:05;;;;;;;0.30;0.10;;;9.50;99.90;;;;;;5062636;28;20444;-59
2023/01/11 07:55:33;;;;;;;0.40;0.10;;;9.50;99.90;;;;;;5063989;28;20427;-60
2023/01/11 07:58:01;;;;;;;0.40;0.40;;;9.60;99.90;;;;;;5057298;28;20435;-62
2023/01/11 08:00:29;;;;;;;0.47;0.20;;;9.60;99.90;;;;;;5072622;28;20704;-61
2023/01/11 08:02:58;;;;;;;0.40;0.20;;;9.70;99.90;;;;;;5072236;28;20443;-62
2023/01/11 08:05:25;;;;;;;0.30;0.10;;;9.70;99.90;;;;;;5069564;28;20431;-63
2023/01/11 08:07:52;;;;;;;6.10;0.60;;;9.80;99.90;;;;;;5069834;28;20970;-63
2023/01/11 08:10:19;;;;;;;1.55;0.20;;;9.80;99.90;;;;;;5071786;28;20761;-66
2023/01/11 08:15:35;;;;;;;4.45;0.20;;;9.90;99.90;;;;;;5070922;28;20435;-65
2023/01/11 08:18:05;;;;;;;9.77;0.40;;;9.90;99.90;;;;;;5055969;28;20476;-69
2023/01/11 08:20:32;;;;;;;16.08;0.60;;;10.00;99.90;;;;;;5053350;28;20429;-68
2023/01/11 08:23:04;;;;;;;9.07;0.47;;;10.00;99.90;;;;;;5066146;28;20542;-63
2023/01/11 08:25:31;;;;;;;1.15;0.20;;;10.00;99.90;;;;;;5070729;28;21011;-64
2023/01/11 08:28:00;;;;;;;0.30;0.20;;;10.00;99.90;;;;;;5069427;28;20531;-66
2023/01/11 08:30:27;;;;;;;1.50;0.20;;;10.00;99.90;;;;;;5071504;28;20426;-67
2023/01/11 08:32:55;;;;;;;0.40;0.20;;;10.00;99.90;;;;;;5072117;28;20431;-68
2023/01/11 08:35:24;;;;;;;0.30;0.10;;;10.00;99.90;;;;;;5071601;28;20462;-68
2023/01/11 08:37:52;;;;;;;0.70;0.20;;;10.10;99.90;;;;;;5061210;28;20524;-68
2023/01/11 08:40:19;;;;;;;0.40;0.20;;;10.10;99.90;;;;;;5063447;28;20514;-68
2023/01/11 08:42:46;;;;;;;0.30;0.10;;;10.20;99.90;;;;;;5070425;28;20515;-68
2023/01/11 08:45:14;;;;;;;0.95;0.20;;;10.20;99.90;;;;;;5056154;28;20437;-68
2023/01/11 08:47:41;;;;;;;0.40;0.10;;;10.20;99.90;;;;;;5052041;28;20460;-68
2023/01/11 08:50:09;;;;;;;0.45;0.20;;;10.20;99.90;;;;;;5067056;28;20524;-66
2023/01/11 08:52:39;;;;;;;0.30;0.20;;;10.20;99.90;;;;;;5056050;28;20515;-68
2023/01/11 08:55:07;;;;;;;0.70;0.20;;;10.20;99.90;;;;;;5070305;28;20451;-70
2023/01/11 08:57:35;;;;;;;0.40;0.20;;;10.30;99.90;;;;;;5070929;28;20463;-68
2023/01/11 09:00:03;;;;;;;0.50;0.20;;;10.30;99.90;;;;;;5072367;28;20442;-68
2023/01/11 09:02:30;;;;;;;0.40;0.20;;;10.30;99.90;;;;;;5070651;28;20463;-68
2023/01/11 09:04:57;;;;;;;0.80;0.20;;;10.40;99.90;;;;;;5070600;28;20809;-68
2023/01/11 09:07:25;;;;;;;0.40;0.20;;;10.40;99.90;;;;;;5072019;28;20426;-68
2023/01/11 09:09:53;;;;;;;0.30;0.10;;;10.40;99.90;;;;;;5061467;28;20447;-67
2023/01/11 09:12:20;;;;;;;1.00;0.30;;;10.50;99.90;;;;;;5071939;28;20435;-68
2023/01/11 09:14:48;;;;;;;0.40;0.20;;;10.60;99.90;;;;;;5065155;28;20431;-68
2023/01/11 09:17:15;;;;;;;0.40;0.10;;;10.50;99.90;;;;;;5075619;28;20439;-68
2023/01/11 09:19:42;;;;;;;0.30;0.10;;;10.60;99.90;;;;;;5076157;28;20492;-68
2023/01/11 09:22:09;;;;;;;0.40;0.10;;;10.60;99.90;;;;;;5059513;28;20461;-68
2023/01/11 09:24:36;;;;;;;0.30;0.20;;;10.70;99.90;;;;;;5073621;28;20474;-68
2023/01/11 09:27:05;;;;;;;0.40;0.20;;;10.60;99.90;;;;;;5074649;28;20438;-68
2023/01/11 09:29:32;;;;;;;0.60;0.20;;;10.70;99.90;;;;;;5073482;28;20467;-68
2023/01/11 09:31:59;;;;;;;0.40;0.20;;;10.70;99.90;;;;;;5071366;28;21057;-68
2023/01/11 09:34:27;;;;;;;0.40;0.20;;;10.70;99.90;;;;;;5063261;28;20827;-68
2023/01/11 09:36:55;;;;;;;0.30;0.10;;;10.70;99.90;;;;;;5063896;28;20437;-68
2023/01/11 09:39:25;;;;;;;0.60;0.20;;;10.70;99.90;;;;;;5070777;28;20450;-68
2023/01/11 09:42:31;;;;;;;0.40;0.10;;;10.70;99.90;;;;;;5072586;28;20508;-68
2023/01/11 09:45:04;;;;;;;0.90;0.10;;;10.80;99.90;;;;;;5059360;28;20440;-69
2023/01/11 09:47:38;;;;;;;0.40;0.10;;;10.80;99.90;;;;;;5075796;28;20517;-68
2023/01/11 09:50:11;;;;;;;0.40;0.20;;;10.80;99.90;;;;;;5069462;28;20431;-68
2023/01/11 09:52:42;;;;;;;0.30;0.13;;;10.80;99.90;;;;;;5075647;28;20469;-68
2023/01/11 09:55:18;;;;;;;0.30;0.10;;;10.90;99.90;;;;;;5075000;28;20929;-68
2023/01/11 09:58:01;;;;;;;1.08;0.25;;;11.00;99.90;;;;;;5058267;28;20465;-68
2023/01/11 10:00:40;;;;;;;0.50;0.20;;;11.00;99.90;;;;;;5069353;28;20427;-67
2023/01/11 10:03:27;;;;;;;0.40;0.20;;;11.00;99.90;;;;;;5071650;28;20500;-67
2023/01/11 10:06:07;;;;;;;0.30;0.20;;;11.00;99.90;;;;;;5056105;28;20520;-67
2023/01/11 10:08:54;;;;;;;0.40;0.20;;;11.10;99.90;;;;;;5058818;28;20510;-67
2023/01/11 10:11:34;;;;;;;0.40;0.20;;;11.10;99.90;;;;;;5065654;28;20472;-64
2023/01/11 10:14:12;;;;;;;0.50;0.10;;;11.10;99.90;;;;;;5054961;28;20429;-65
2023/01/11 10:16:54;;;;;;;0.70;0.20;;;11.10;99.90;;;;;;5071554;28;20432;-65
2023/01/11 10:19:25;;;;;;;0.40;0.20;;;11.10;99.90;;;;;;5072322;28;20447;-65
2023/01/11 10:21:57;;;;;;;0.50;0.20;;;11.00;99.90;;;;;;5075107;28;20481;-65
2023/01/11 10:24:27;;;;;;;0.40;0.20;;;11.00;99.90;;;;;;5075523;28;20427;-66
2023/01/11 10:26:57;;;;;;;0.40;0.20;;;11.00;99.90;;;;;;5074075;28;20431;-64
2023/01/11 10:29:56;;;;;;;0.60;0.20;;;11.00;99.90;;;;;;5075165;28;20458;-64
2023/01/11 10:32:51;;;;;;;0.40;0.20;;;11.00;99.90;;;;;;5072866;28;20416;-64
2023/01/11 10:35:44;;;;;;;1.20;0.20;;;11.10;99.90;;;;;;5073032;28;20489;-65
2023/01/11 10:38:41;;;;;;;0.40;0.20;;;11.10;99.90;;;;;;5074004;28;20442;-65
2023/01/11 10:41:21;;;;;;;0.40;0.20;;;11.10;99.90;;;;;;5075469;28;20431;-66
2023/01/11 10:43:55;;;;;;;0.50;0.20;;;11.10;99.90;;;;;;5074509;28;20797;-65
2023/01/11 10:46:27;;;;;;;0.40;0.20;;;11.10;99.90;;;;;;5073286;28;20423;-69
2023/01/11 10:49:03;;;;;;;0.90;0.20;;;11.10;99.90;;;;;;5073472;28;20550;-68
2023/01/11 10:51:36;;;;;;;0.40;0.20;;;11.10;99.90;;;;;;5074339;28;20420;-68
2023/01/11 10:54:12;;;;;;;0.50;0.20;;;11.10;99.90;;;;;;5073047;28;20520;-68
2023/01/11 10:56:54;;;;;;;0.30;0.20;;;11.10;99.90;;;;;;5072461;28;20485;-68
2023/01/11 10:59:38;;;;;;;0.50;0.30;;;11.10;99.90;;;;;;5071885;28;21104;-68
2023/01/11 11:02:17;;;;;;;0.50;0.20;;;11.10;99.90;;;;;;5074042;28;20514;-68
2023/01/11 11:05:03;;;;;;;0.40;0.20;;;11.10;99.90;;;;;;5074603;28;20526;-68
2023/01/11 11:07:38;;;;;;;0.70;0.20;;;11.10;99.90;;;;;;5055486;28;20437;-68
2023/01/11 11:10:14;;;;;;;1.40;0.30;;;11.20;99.90;;;;;;5055521;28;20439;-68
2023/01/11 11:12:49;;;;;;;0.60;0.20;;;11.20;99.90;;;;;;5073005;28;20431;-68
2023/01/11 11:15:25;;;;;;;0.50;0.30;;;11.30;99.90;;;;;;5070947;28;20477;-68
2023/01/11 11:17:54;;;;;;;0.65;0.20;;;11.30;99.90;;;;;;5071650;28;20497;-68
2023/01/11 11:20:24;;;;;;;0.60;0.30;;;11.30;99.90;;;;;;5073878;28;20784;-69
2023/01/11 11:22:53;;;;;;;1.20;0.40;;;11.30;99.90;;;;;;5073065;28;20766;-69
2023/01/11 11:25:26;;;;;;;0.47;0.20;;;11.20;99.90;;;;;;5074406;28;20417;-69
2023/01/11 11:27:58;;;;;;;1.00;0.30;;;11.30;99.90;;;;;;5073626;28;20416;-68
2023/01/11 11:30:29;;;;;;;0.50;0.20;;;11.30;99.90;;;;;;5071987;28;20518;-69
2023/01/11 11:33:00;;;;;;;0.40;0.20;;;11.30;99.90;;;;;;5072153;28;20412;-68
2023/01/11 11:35:36;;;;;;;0.70;0.20;;;11.40;99.90;;;;;;5073607;28;20827;-69
2023/01/11 11:38:04;;;;;;;0.45;0.20;;;11.40;99.90;;;;;;5070547;28;20528;-69
2023/01/11 11:40:34;;;;;;;0.60;0.30;;;11.40;99.90;;;;;;5072396;28;20558;-69
2023/01/11 11:43:26;;;;;;;0.57;0.20;;;11.40;99.90;;;;;;5073269;28;20518;-69
2023/01/11 11:45:56;;;;;;;0.50;0.20;;;11.50;99.90;;;;;;5046950;28;20516;-69
2023/01/11 11:48:26;;;;;;;0.80;0.20;;;11.50;99.90;;;;;;5056869;28;20515;-64
2023/01/11 11:50:55;;;;;;;0.40;0.20;;;11.50;99.90;;;;;;5057185;28;20784;-70
2023/01/11 11:53:35;;;;;;;0.60;0.30;;;11.40;99.90;;;;;;5052767;28;20435;-69
2023/01/11 11:56:14;;;;;;;0.60;0.30;;;11.40;99.90;;;;;;5051288;28;20528;-69
2023/01/11 11:58:42;;;;;;;0.50;0.20;;;11.30;99.90;;;;;;5057894;28;20530;-69
2023/01/11 12:01:22;;;;;;;0.70;0.20;;;11.30;99.90;;;;;;5072299;28;20530;-68
2023/01/11 12:03:52;;;;;;;0.50;0.20;;;11.20;99.90;;;;;;5065677;28;20431;-68
2023/01/11 12:06:26;;;;;;;0.40;0.20;;;11.30;99.90;;;;;;5068802;28;20511;-69
2023/01/11 12:08:55;;;;;;;0.40;0.20;;;11.30;99.90;;;;;;5072481;28;20509;-68
2023/01/11 12:11:31;;;;;;;0.40;0.20;;;11.20;99.90;;;;;;5072721;28;20510;-68
2023/01/11 12:14:02;;;;;;;0.60;0.20;;;11.20;99.90;;;;;;5061009;28;20441;-69
2023/01/11 12:16:35;;;;;;;0.40;0.20;;;11.20;99.90;;;;;;5068858;28;20466;-69
2023/01/11 12:19:04;;;;;;;0.40;0.20;;;11.30;99.90;;;;;;5069468;28;20440;-69
2023/01/11 12:21:31;;;;;;;0.40;0.20;;;11.30;99.90;;;;;;5061128;28;20940;-69
2023/01/11 12:24:10;;;;;;;0.60;0.30;;;11.30;99.90;;;;;;5070510;28;20521;-69
2023/01/11 12:26:47;;;;;;;0.60;0.30;;;11.20;99.90;;;;;;5067294;28;20437;-68
2023/01/11 12:29:48;;;;;;;0.70;0.20;;;11.30;99.90;;;;;;5058017;28;20437;-67
2023/01/11 12:32:41;;;;;;;1.00;0.30;;;11.30;99.90;;;;;;5058259;28;20920;-68
2023/01/11 12:35:29;;;;;;;0.40;0.20;;;11.20;99.90;;;;;;5067496;28;21051;-67
2023/01/11 12:38:20;;;;;;;0.50;0.20;;;11.30;99.90;;;;;;5069044;28;20874;-68
2023/01/11 12:41:11;;;;;;;0.47;0.20;;;11.30;99.90;;;;;;5071910;28;20506;-68
2023/01/11 12:43:50;;;;;;;0.40;0.20;;;11.40;99.90;;;;;;5055663;28;20428;-67
2023/01/11 12:46:28;;;;;;;0.50;0.20;;;11.40;99.90;;;;;;5055078;28;20478;-67
2023/01/11 12:49:18;;;;;;;0.70;0.30;;;11.50;99.90;;;;;;5066833;28;20465;-66
2023/01/11 12:52:03;;;;;;;0.80;0.30;;;11.60;99.90;;;;;;5072153;28;20506;-64
2023/01/11 12:54:52;;;;;;;0.63;0.30;;;11.50;99.90;;;;;;5071407;28;20439;-63
2023/01/11 12:57:27;;;;;;;0.50;0.30;;;11.50;99.90;;;;;;5072520;28;20443;-63
2023/01/11 13:00:22;;;;;;;0.70;0.30;;;11.40;99.90;;;;;;5073721;28;20526;-63
2023/01/11 13:03:07;;;;;;;0.70;0.30;;;11.30;99.90;;;;;;5039928;28;20545;-63
2023/01/11 13:05:43;;;;;;;1.40;0.40;;;11.30;99.90;;;;;;5072195;28;20470;-63
2023/01/11 13:08:21;;;;;;;0.40;0.30;;;11.20;99.90;;;;;;5063603;28;20478;-63
2023/01/11 13:10:58;;;;;;;1.30;0.30;;;11.30;99.90;;;;;;5067815;28;20897;-63
2023/01/11 13:13:32;;;;;;;0.60;0.30;;;11.20;99.90;;;;;;5058342;28;20924;-63
2023/01/11 13:16:06;;;;;;;0.60;0.30;;;11.10;99.90;;;;;;5060005;28;20511;-62
2023/01/11 13:18:40;;;;;;;1.90;0.50;;;11.10;99.90;;;;;;5067871;28;20443;-61
2023/01/11 13:21:18;;;;;;;0.80;0.40;;;11.10;99.90;;;;;;5070950;28;20949;-62
2023/01/11 13:23:51;;;;;;;0.90;0.40;;;11.10;99.90;;;;;;5065683;28;20522;-61
2023/01/11 13:26:23;;;;;;;0.90;0.40;;;11.10;99.90;;;;;;5066084;28;20420;-61
2023/01/11 13:28:55;;;;;;;1.10;0.50;;;11.10;99.90;;;;;;5066989;28;20435;-62
2023/01/11 13:31:24;;;;;;;0.70;0.30;;;11.10;99.90;;;;;;5070147;28;20447;-61
2023/01/11 13:33:57;;;;;;;1.33;0.30;;;11.00;99.90;;;;;;5070162;28;20815;-62
2023/01/11 13:36:28;;;;;;;1.52;0.50;;;11.00;99.90;;;;;;5066636;28;20506;-62
2023/01/11 13:39:02;;;;;;;1.30;0.40;;;11.00;99.90;;;;;;5058728;28;20528;-62